Honolulu, Hawaii
Current Conditions -  °F | °C
As of 5:53 PM on Thursday 30 Oct 2014 (Local Time) from PHNL Reporting Station
Broken Clouds Broken Clouds  
Wind Chill: 80°   Ceiling: 6000
Heat Index: 82°   Visibility: 10mi
Dew Point: 67°   Wind: 15mph
Humidity: 64%   Direction: 70°ENE
Pressure: 30.02"   Gusts: 21mph
Location:  21.3°N, 157.85°W
Report Text: PHNL 310353Z 07013G18KT 10SM FEW032 SCT050 BKN060 27/19 A3002 RMK AO2 SLP164 T02670194
Loading
Personal Weather Stations






























Interactive Weather Map
Tropical Storm Tracking
New forecast layout! Learn more

10-Day Weather Forecast

Advertisements
Track Severe Weather on mobile